Time;durP1;ratioP1;P1;durP2;ratioP2;P2;SDS_P1;SDS_P2;PMS_P1;PMS_P2;Temp;Humidity;BMP_temperature;BMP_pressure;BME280_temperature;BME280_humidity;BME280_pressure;Samples;Min_cycle;Max_cycle;Signal;HPM_P1;HPM_P2
2021/12/17 00:00:33;;;;;;;34.17;13.63;;;;;;;;;;5087404;28;20546;-65
2021/12/17 00:08:10;;;;;;;32.83;12.18;;;;;;;;;;5085773;28;20157;-65
2021/12/17 00:10:36;;;;;;;39.83;13.68;;;;;;;;;;5085353;28;20395;-65
2021/12/17 00:13:03;;;;;;;64.25;15.75;;;;;;;;;;5086714;28;20104;-65
2021/12/17 00:15:29;;;;;;;35.00;12.60;;;;;;;;;;5087901;28;20040;-65
2021/12/17 00:18:01;;;;;;;34.63;12.82;;;;;;;;;;5085564;28;20047;-65
2021/12/17 00:53:09;;;;;;;22.88;10.68;;;;;;;;;;5092692;28;20137;-65
2021/12/17 00:55:35;;;;;;;19.10;9.70;;;;;;;;;;5088047;28;20038;-66
2021/12/17 00:58:03;;;;;;;24.63;10.05;;;;;;;;;;5089180;28;20040;-65
2021/12/17 01:00:29;;;;;;;16.88;8.68;;;;;;;;;;5089936;28;20036;-66
2021/12/17 01:02:55;;;;;;;24.42;10.07;;;;;;;;;;5091534;28;20038;-65
2021/12/17 01:05:24;;;;;;;32.20;13.05;;;;;;;;;;5085837;28;20044;-65
2021/12/17 01:07:52;;;;;;;19.20;9.75;;;;;;;;;;5093073;28;20039;-66
2021/12/17 01:10:20;;;;;;;21.83;10.48;;;;;;;;;;5092355;28;20040;-65
2021/12/17 01:12:46;;;;;;;21.23;10.35;;;;;;;;;;5093337;28;20093;-65
2021/12/17 01:15:14;;;;;;;24.02;10.77;;;;;;;;;;5088780;28;20079;-65
2021/12/17 01:17:43;;;;;;;28.23;11.38;;;;;;;;;;5092332;28;20043;-65
2021/12/17 01:25:12;;;;;;;27.73;12.45;;;;;;;;;;5092026;28;20052;-64
2021/12/17 01:35:52;;;;;;;28.90;12.82;;;;;;;;;;5089066;28;20131;-65
2021/12/17 01:43:16;;;;;;;34.65;12.95;;;;;;;;;;5081587;28;20059;-65
2021/12/17 01:45:43;;;;;;;26.95;13.07;;;;;;;;;;5089977;28;20573;-65
2021/12/17 01:48:13;;;;;;;34.55;13.75;;;;;;;;;;5075316;28;20396;-65
2021/12/17 02:01:35;;;;;;;31.67;12.10;;;;;;;;;;5089141;28;20487;-65
2021/12/17 02:04:03;;;;;;;29.55;12.07;;;;;;;;;;5074616;28;20048;-66
2021/12/17 02:06:31;;;;;;;31.20;12.73;;;;;;;;;;5090529;28;20055;-65
2021/12/17 02:09:00;;;;;;;24.80;12.65;;;;;;;;;;5091248;28;20036;-66
2021/12/17 02:12:02;;;;;;;26.48;12.40;;;;;;;;;;5089374;28;20560;-65
2021/12/17 02:19:43;;;;;;;25.92;11.90;;;;;;;;;;5086055;28;20070;-65
2021/12/17 02:32:48;;;;;;;26.63;12.48;;;;;;;;;;5082783;28;20036;-65
2021/12/17 02:35:30;;;;;;;27.42;13.23;;;;;;;;;;5082831;28;20064;-65
2021/12/17 02:37:56;;;;;;;23.30;12.07;;;;;;;;;;5090336;28;20358;-65
2021/12/17 02:45:46;;;;;;;22.77;12.52;;;;;;;;;;5087512;28;20076;-64
2021/12/17 02:48:13;;;;;;;25.05;12.18;;;;;;;;;;5084950;28;20112;-65
2021/12/17 02:50:42;;;;;;;27.10;12.85;;;;;;;;;;5088711;28;20043;-65
2021/12/17 02:53:08;;;;;;;38.50;14.45;;;;;;;;;;5087028;28;20048;-64
2021/12/17 02:55:35;;;;;;;35.25;14.30;;;;;;;;;;5090223;28;20072;-64
2021/12/17 02:58:02;;;;;;;40.95;15.15;;;;;;;;;;5085439;28;20040;-65
2021/12/17 03:00:29;;;;;;;43.80;14.88;;;;;;;;;;5086656;28;20050;-64
2021/12/17 03:02:56;;;;;;;33.35;13.80;;;;;;;;;;5086223;28;20047;-65
2021/12/17 03:05:23;;;;;;;37.72;15.15;;;;;;;;;;5086627;28;20114;-65
2021/12/17 03:07:49;;;;;;;43.90;15.25;;;;;;;;;;5085942;28;20043;-65
2021/12/17 03:10:15;;;;;;;45.47;15.32;;;;;;;;;;5088445;28;20048;-65
2021/12/17 03:12:52;;;;;;;44.25;15.25;;;;;;;;;;5088519;28;20076;-65
2021/12/17 03:23:40;;;;;;;38.25;15.10;;;;;;;;;;5083931;28;20468;-65
2021/12/17 03:26:22;;;;;;;53.85;16.08;;;;;;;;;;5084534;28;20689;-65
2021/12/17 03:28:50;;;;;;;39.83;14.50;;;;;;;;;;5085954;28;20055;-65
2021/12/17 03:31:17;;;;;;;39.45;15.07;;;;;;;;;;5083942;28;20044;-64
2021/12/17 03:33:44;;;;;;;39.10;15.55;;;;;;;;;;5086791;28;20067;-65
2021/12/17 03:36:11;;;;;;;32.00;13.63;;;;;;;;;;5087904;28;20033;-64
2021/12/17 03:38:39;;;;;;;30.60;13.98;;;;;;;;;;5085178;28;20048;-65
2021/12/17 03:41:17;;;;;;;37.65;15.25;;;;;;;;;;5080905;28;20048;-65
2021/12/17 03:43:44;;;;;;;37.90;14.48;;;;;;;;;;5081425;28;20043;-65
2021/12/17 03:46:10;;;;;;;38.63;15.13;;;;;;;;;;5086826;28;20400;-65
2021/12/17 03:48:38;;;;;;;43.78;15.75;;;;;;;;;;5081803;28;20110;-65
2021/12/17 03:51:05;;;;;;;39.60;14.93;;;;;;;;;;5088563;28;20408;-65
2021/12/17 03:53:31;;;;;;;34.83;13.82;;;;;;;;;;5089350;28;20636;-65
2021/12/17 03:55:58;;;;;;;31.77;13.25;;;;;;;;;;5087321;28;20043;-65
2021/12/17 03:58:24;;;;;;;27.70;13.05;;;;;;;;;;5071893;28;20043;-64
2021/12/17 04:00:50;;;;;;;23.80;11.07;;;;;;;;;;5086029;28;20036;-64
2021/12/17 04:03:16;;;;;;;22.13;10.63;;;;;;;;;;5085530;28;20041;-64
2021/12/17 04:05:42;;;;;;;18.38;9.52;;;;;;;;;;5086258;28;20039;-65
2021/12/17 04:08:09;;;;;;;15.02;8.93;;;;;;;;;;5087530;28;20097;-65
2021/12/17 04:10:42;;;;;;;18.48;9.13;;;;;;;;;;5089207;28;20430;-65
2021/12/17 04:13:27;;;;;;;27.45;11.57;;;;;;;;;;5088581;28;20533;-64
2021/12/17 04:15:57;;;;;;;17.52;9.05;;;;;;;;;;5086651;28;20040;-65
2021/12/17 04:18:24;;;;;;;19.70;9.23;;;;;;;;;;5088757;28;20476;-64
2021/12/17 04:20:50;;;;;;;18.80;9.20;;;;;;;;;;5089150;28;20055;-65
2021/12/17 04:23:16;;;;;;;23.33;10.60;;;;;;;;;;5084869;28;20392;-64
2021/12/17 04:25:42;;;;;;;23.08;10.98;;;;;;;;;;5088897;28;20458;-64
2021/12/17 04:28:08;;;;;;;28.27;11.00;;;;;;;;;;5088151;28;20070;-64
2021/12/17 04:30:35;;;;;;;23.15;10.50;;;;;;;;;;5088987;28;20127;-65
2021/12/17 04:33:01;;;;;;;20.33;10.50;;;;;;;;;;5089543;28;20055;-65
2021/12/17 04:35:27;;;;;;;26.50;11.10;;;;;;;;;;5088706;28;20485;-65
2021/12/17 04:37:53;;;;;;;25.83;10.27;;;;;;;;;;5088448;28;20418;-65
2021/12/17 04:40:22;;;;;;;32.50;11.93;;;;;;;;;;5082105;28;20040;-65
2021/12/17 04:45:24;;;;;;;29.67;11.98;;;;;;;;;;5078603;28;20052;-64
2021/12/17 04:58:49;;;;;;;23.17;10.45;;;;;;;;;;5089931;28;20032;-64
2021/12/17 05:01:16;;;;;;;22.02;9.88;;;;;;;;;;5082750;28;20040;-64
2021/12/17 05:03:42;;;;;;;21.10;10.38;;;;;;;;;;5087089;28;20043;-64
2021/12/17 05:06:09;;;;;;;39.22;11.27;;;;;;;;;;5083254;28;20041;-64
2021/12/17 05:08:35;;;;;;;25.27;10.63;;;;;;;;;;5088166;28;21459;-64
2021/12/17 05:19:12;;;;;;;27.20;11.27;;;;;;;;;;5091072;28;20131;-64
2021/12/17 05:21:38;;;;;;;26.50;10.98;;;;;;;;;;5087125;28;20112;-64
2021/12/17 05:24:04;;;;;;;26.63;10.93;;;;;;;;;;5091554;28;20062;-64
2021/12/17 05:26:30;;;;;;;33.88;11.88;;;;;;;;;;5091127;28;20039;-64
2021/12/17 05:28:56;;;;;;;21.83;11.18;;;;;;;;;;5090255;28;20392;-64
2021/12/17 05:31:22;;;;;;;22.58;11.18;;;;;;;;;;5086620;28;20036;-64
2021/12/17 05:33:52;;;;;;;24.23;11.02;;;;;;;;;;5090345;28;20078;-64
2021/12/17 05:36:20;;;;;;;24.63;11.20;;;;;;;;;;5084545;28;20044;-64
2021/12/17 05:38:47;;;;;;;24.48;11.27;;;;;;;;;;5090995;28;20051;-64
2021/12/17 05:41:13;;;;;;;20.25;10.68;;;;;;;;;;5087539;28;20070;-64
2021/12/17 05:43:39;;;;;;;24.33;10.55;;;;;;;;;;5085860;28;20046;-64
2021/12/17 05:46:11;;;;;;;26.88;11.45;;;;;;;;;;5091507;28;20031;-64
2021/12/17 05:48:38;;;;;;;22.77;10.52;;;;;;;;;;5090493;28;20048;-64
2021/12/17 05:51:06;;;;;;;23.00;10.43;;;;;;;;;;5085320;28;20066;-64
2021/12/17 05:53:32;;;;;;;28.30;11.55;;;;;;;;;;5089495;28;20064;-64
2021/12/17 05:55:58;;;;;;;25.25;11.35;;;;;;;;;;5092698;28;20420;-64
2021/12/17 05:58:25;;;;;;;28.10;12.07;;;;;;;;;;5091798;28;20043;-64
2021/12/17 06:00:51;;;;;;;36.22;13.00;;;;;;;;;;5088219;28;20047;-64
2021/12/17 06:03:18;;;;;;;40.58;13.48;;;;;;;;;;5090105;28;20048;-64
2021/12/17 06:05:44;;;;;;;29.27;11.07;;;;;;;;;;5087973;28;20079;-64
2021/12/17 06:08:10;;;;;;;22.52;11.80;;;;;;;;;;5091773;28;20070;-64
2021/12/17 06:10:36;;;;;;;24.65;11.40;;;;;;;;;;5071221;28;20075;-64
2021/12/17 06:13:02;;;;;;;30.75;11.07;;;;;;;;;;5087531;28;20114;-64
2021/12/17 06:15:28;;;;;;;42.72;12.27;;;;;;;;;;5084996;28;20040;-64
2021/12/17 06:17:55;;;;;;;33.55;11.35;;;;;;;;;;5087894;28;20076;-64
2021/12/17 06:20:22;;;;;;;34.42;12.68;;;;;;;;;;5089280;28;20440;-64
2021/12/17 06:22:48;;;;;;;32.05;12.38;;;;;;;;;;5090790;28;20118;-64
2021/12/17 06:25:15;;;;;;;29.15;12.60;;;;;;;;;;5082310;28;20071;-64
2021/12/17 06:27:41;;;;;;;42.58;13.48;;;;;;;;;;5086115;28;20047;-64
2021/12/17 06:30:08;;;;;;;38.58;13.82;;;;;;;;;;5089323;28;20048;-64
2021/12/17 06:32:34;;;;;;;27.25;13.07;;;;;;;;;;5089137;28;20055;-64
2021/12/17 06:35:00;;;;;;;39.53;13.65;;;;;;;;;;5088205;28;20032;-64
2021/12/17 06:37:26;;;;;;;25.85;11.52;;;;;;;;;;5088398;28;20039;-64
2021/12/17 06:39:53;;;;;;;26.10;11.70;;;;;;;;;;5089007;28;20141;-64
2021/12/17 06:42:19;;;;;;;35.58;12.27;;;;;;;;;;5084466;28;20036;-63
2021/12/17 06:44:47;;;;;;;43.55;12.23;;;;;;;;;;5084600;28;20044;-64
2021/12/17 06:47:29;;;;;;;34.33;11.50;;;;;;;;;;5089034;28;20058;-63
2021/12/17 06:54:37;;;;;;;24.38;10.32;;;;;;;;;;5073279;28;20044;-64
2021/12/17 07:06:09;;;;;;;31.10;11.73;;;;;;;;;;5086239;28;20484;-65
2021/12/17 07:40:34;;;;;;;20.13;9.70;;;;;;;;;;5083002;28;20109;-66
2021/12/17 07:43:04;;;;;;;22.17;10.23;;;;;;;;;;5089122;28;20081;-66
2021/12/17 07:45:30;;;;;;;17.58;9.60;;;;;;;;;;5073279;28;20043;-68
2021/12/17 07:47:56;;;;;;;27.17;10.52;;;;;;;;;;5089280;28;20480;-67
2021/12/17 07:50:25;;;;;;;37.40;11.10;;;;;;;;;;5087849;28;20113;-67
2021/12/17 07:52:51;;;;;;;19.35;10.57;;;;;;;;;;5086199;28;20131;-68
2021/12/17 07:55:17;;;;;;;20.05;9.50;;;;;;;;;;5086882;28;20415;-67
2021/12/17 07:57:43;;;;;;;24.52;10.25;;;;;;;;;;5089839;28;20043;-67
2021/12/17 08:00:09;;;;;;;22.20;8.95;;;;;;;;;;5084687;28;20039;-66
2021/12/17 08:02:35;;;;;;;26.63;10.93;;;;;;;;;;5083041;28;20070;-65
2021/12/17 08:05:01;;;;;;;20.67;10.20;;;;;;;;;;5088089;28;20036;-67
2021/12/17 08:07:27;;;;;;;27.70;10.45;;;;;;;;;;5046413;28;20078;-66
2021/12/17 08:09:53;;;;;;;20.67;10.57;;;;;;;;;;5075962;28;20093;-67
2021/12/17 08:12:19;;;;;;;23.42;10.27;;;;;;;;;;5080177;28;20040;-68
2021/12/17 08:14:45;;;;;;;18.80;10.38;;;;;;;;;;5076770;28;20032;-67
2021/12/17 08:32:41;;;;;;;17.80;9.88;;;;;;;;;;5080977;28;20487;-68
2021/12/17 08:35:07;;;;;;;25.70;9.98;;;;;;;;;;5063580;28;20529;-68
2021/12/17 08:37:34;;;;;;;21.00;10.32;;;;;;;;;;5066367;28;20066;-68
2021/12/17 08:40:00;;;;;;;27.05;10.90;;;;;;;;;;5063405;28;20055;-68
2021/12/17 08:42:26;;;;;;;25.48;10.88;;;;;;;;;;5082686;28;20044;-68
2021/12/17 08:44:53;;;;;;;24.40;10.65;;;;;;;;;;5085704;28;20056;-68
2021/12/17 08:47:19;;;;;;;27.95;11.30;;;;;;;;;;5084688;28;20043;-68
2021/12/17 08:49:46;;;;;;;22.77;10.50;;;;;;;;;;5085442;28;20063;-69
2021/12/17 08:52:13;;;;;;;20.70;9.95;;;;;;;;;;5085149;28;20048;-68
2021/12/17 08:54:39;;;;;;;21.25;9.48;;;;;;;;;;5082340;28;20054;-68
2021/12/17 08:57:06;;;;;;;19.05;9.63;;;;;;;;;;5082199;28;20044;-68
2021/12/17 08:59:32;;;;;;;20.90;10.23;;;;;;;;;;5084654;28;20076;-68
2021/12/17 09:01:59;;;;;;;25.75;10.63;;;;;;;;;;5085732;28;20039;-68
2021/12/17 09:04:27;;;;;;;20.38;9.82;;;;;;;;;;5083039;28;20121;-68
2021/12/17 09:06:54;;;;;;;21.23;9.73;;;;;;;;;;5084265;28;20079;-70
2021/12/17 09:09:22;;;;;;;20.45;9.88;;;;;;;;;;5083116;28;20538;-68
2021/12/17 09:11:48;;;;;;;21.63;10.13;;;;;;;;;;5084470;28;20055;-68
2021/12/17 09:14:14;;;;;;;23.08;10.32;;;;;;;;;;5084881;28;20028;-68
2021/12/17 09:16:41;;;;;;;19.63;9.68;;;;;;;;;;5085993;28;20044;-68
2021/12/17 09:19:09;;;;;;;27.00;10.73;;;;;;;;;;5069205;28;20411;-68
2021/12/17 09:21:35;;;;;;;18.67;9.65;;;;;;;;;;5067717;28;20397;-68
2021/12/17 09:24:01;;;;;;;25.77;10.25;;;;;;;;;;5085971;28;20035;-68
2021/12/17 09:26:27;;;;;;;18.80;9.73;;;;;;;;;;5082778;28;20044;-68
2021/12/17 09:28:54;;;;;;;21.30;10.45;;;;;;;;;;5082612;28;20040;-68
2021/12/17 09:31:20;;;;;;;18.25;9.52;;;;;;;;;;5085571;28;20059;-68
2021/12/17 09:33:49;;;;;;;17.63;10.00;;;;;;;;;;5070401;28;20077;-69
2021/12/17 09:36:15;;;;;;;22.65;10.90;;;;;;;;;;5083851;28;20048;-69
2021/12/17 09:38:41;;;;;;;19.30;9.88;;;;;;;;;;5082117;28;20094;-68
2021/12/17 09:41:07;;;;;;;19.55;10.57;;;;;;;;;;5085819;28;20047;-68
2021/12/17 09:43:36;;;;;;;21.45;11.85;;;;;;;;;;5065234;28;20075;-68
2021/12/17 09:46:05;;;;;;;20.30;11.85;;;;;;;;;;5082207;28;20062;-68
2021/12/17 09:48:31;;;;;;;18.52;10.20;;;;;;;;;;5102342;28;20468;-68
2021/12/17 09:50:57;;;;;;;22.40;11.18;;;;;;;;;;5085464;28;20032;-68
2021/12/17 09:53:24;;;;;;;21.80;11.85;;;;;;;;;;5066232;28;20054;-67
2021/12/17 09:55:51;;;;;;;22.45;11.60;;;;;;;;;;5084170;28;20086;-68
2021/12/17 09:58:17;;;;;;;24.77;11.25;;;;;;;;;;5081095;28;20048;-67
2021/12/17 10:00:43;;;;;;;23.77;11.48;;;;;;;;;;5085127;28;20063;-67
2021/12/17 10:03:10;;;;;;;25.15;10.98;;;;;;;;;;5084091;28;20101;-67
2021/12/17 10:05:37;;;;;;;20.20;10.48;;;;;;;;;;5070202;28;20040;-68
2021/12/17 10:08:10;;;;;;;18.55;9.68;;;;;;;;;;5083158;28;20055;-67
2021/12/17 10:10:38;;;;;;;19.63;9.88;;;;;;;;;;5087149;28;20329;-68
2021/12/17 10:13:15;;;;;;;20.40;10.27;;;;;;;;;;5082605;28;20478;-67
2021/12/17 10:15:46;;;;;;;18.50;9.77;;;;;;;;;;5085570;28;20064;-67
2021/12/17 10:18:13;;;;;;;19.88;10.27;;;;;;;;;;5085656;28;21353;-67
2021/12/17 10:20:53;;;;;;;17.95;9.70;;;;;;;;;;5081984;28;20032;-67
2021/12/17 10:23:21;;;;;;;21.23;10.93;;;;;;;;;;5082159;28;20044;-67
2021/12/17 10:25:47;;;;;;;19.25;9.40;;;;;;;;;;5084313;28;20044;-67
2021/12/17 10:28:16;;;;;;;19.33;10.23;;;;;;;;;;5080672;28;20056;-67
2021/12/17 10:30:44;;;;;;;19.67;10.13;;;;;;;;;;5081626;28;20039;-67
2021/12/17 10:33:11;;;;;;;17.40;9.60;;;;;;;;;;5064809;28;20044;-68
2021/12/17 10:35:39;;;;;;;17.48;8.73;;;;;;;;;;5084161;28;20040;-67
2021/12/17 10:38:08;;;;;;;23.13;10.23;;;;;;;;;;5081826;28;20044;-70
2021/12/17 10:40:38;;;;;;;14.52;8.80;;;;;;;;;;5082331;28;20064;-70
2021/12/17 10:43:24;;;;;;;19.63;10.25;;;;;;;;;;5082019;28;20043;-71
2021/12/17 10:46:08;;;;;;;16.90;9.57;;;;;;;;;;5081669;28;20097;-71
2021/12/17 10:54:19;;;;;;;17.27;10.05;;;;;;;;;;5080767;28;20116;-71
2021/12/17 10:56:52;;;;;;;20.52;10.10;;;;;;;;;;5060146;28;20036;-71
2021/12/17 10:59:19;;;;;;;22.30;10.25;;;;;;;;;;5085503;28;20047;-71
2021/12/17 11:01:47;;;;;;;21.83;10.25;;;;;;;;;;5080330;28;20040;-71
2021/12/17 11:04:19;;;;;;;21.50;9.85;;;;;;;;;;5084120;28;20043;-69
2021/12/17 11:06:56;;;;;;;20.20;10.20;;;;;;;;;;5066574;28;20036;-70
2021/12/17 11:09:37;;;;;;;22.02;10.65;;;;;;;;;;5084194;28;20368;-70
2021/12/17 11:12:17;;;;;;;17.02;9.90;;;;;;;;;;5083595;28;20032;-70
2021/12/17 11:14:43;;;;;;;18.17;9.68;;;;;;;;;;5079226;28;20047;-70
2021/12/17 11:17:13;;;;;;;17.40;8.85;;;;;;;;;;5081457;28;20029;-70
2021/12/17 11:19:40;;;;;;;16.40;9.27;;;;;;;;;;5081994;28;20119;-70
2021/12/17 11:22:06;;;;;;;16.33;9.15;;;;;;;;;;5081078;28;20127;-70
2021/12/17 11:24:34;;;;;;;15.60;9.18;;;;;;;;;;5082716;28;20121;-70
2021/12/17 11:27:01;;;;;;;18.75;9.85;;;;;;;;;;5081992;28;20065;-70
2021/12/17 11:29:27;;;;;;;12.30;7.75;;;;;;;;;;5083531;28;20097;-70
2021/12/17 11:31:54;;;;;;;17.63;9.93;;;;;;;;;;5083290;28;20422;-70
2021/12/17 11:34:20;;;;;;;16.17;9.52;;;;;;;;;;5081250;28;20087;-70
2021/12/17 11:36:47;;;;;;;17.52;10.13;;;;;;;;;;5080236;28;20052;-69
2021/12/17 11:39:27;;;;;;;15.00;8.60;;;;;;;;;;5081186;28;20158;-70
2021/12/17 11:41:59;;;;;;;15.55;8.98;;;;;;;;;;5081843;28;20060;-70
2021/12/17 11:44:39;;;;;;;13.88;8.10;;;;;;;;;;5082965;28;20097;-70
2021/12/17 11:47:06;;;;;;;15.18;8.75;;;;;;;;;;5080205;28;20060;-70
2021/12/17 11:49:36;;;;;;;12.68;8.50;;;;;;;;;;5063957;28;20062;-70
2021/12/17 11:52:03;;;;;;;12.00;8.00;;;;;;;;;;5101452;27;20052;-69
2021/12/17 11:54:33;;;;;;;13.02;8.65;;;;;;;;;;5067672;28;20048;-69
2021/12/17 11:57:10;;;;;;;14.25;9.27;;;;;;;;;;5084651;28;20466;-70
2021/12/17 11:59:37;;;;;;;16.00;9.13;;;;;;;;;;5067460;28;20186;-69
2021/12/17 12:02:03;;;;;;;17.25;8.85;;;;;;;;;;5078590;28;20054;-70
2021/12/17 12:04:33;;;;;;;15.68;9.35;;;;;;;;;;5083054;28;20998;-70
2021/12/17 12:07:03;;;;;;;14.18;8.88;;;;;;;;;;5066604;28;20040;-70
2021/12/17 12:09:48;;;;;;;17.33;9.38;;;;;;;;;;5101181;28;20044;-69
2021/12/17 12:12:14;;;;;;;14.05;8.75;;;;;;;;;;5084900;28;20078;-70
2021/12/17 12:14:40;;;;;;;14.88;9.23;;;;;;;;;;5068345;28;20539;-70
2021/12/17 12:17:06;;;;;;;14.27;8.82;;;;;;;;;;5085603;28;20040;-70
2021/12/17 12:19:49;;;;;;;15.38;9.25;;;;;;;;;;5085093;28;20055;-70
2021/12/17 12:22:15;;;;;;;14.15;8.98;;;;;;;;;;5088258;28;20114;-70
2021/12/17 12:24:41;;;;;;;15.43;8.70;;;;;;;;;;5088540;28;20059;-70
2021/12/17 12:27:26;;;;;;;15.45;8.90;;;;;;;;;;5069190;28;20059;-70
2021/12/17 12:30:01;;;;;;;13.98;8.07;;;;;;;;;;5087508;28;20058;-69
2021/12/17 12:32:28;;;;;;;14.77;8.85;;;;;;;;;;5087566;28;20369;-70
2021/12/17 12:35:05;;;;;;;11.80;8.10;;;;;;;;;;5068430;28;20127;-70
2021/12/17 12:37:32;;;;;;;11.75;8.02;;;;;;;;;;5084557;28;20055;-70
2021/12/17 12:39:58;;;;;;;11.88;8.00;;;;;;;;;;5088969;28;20429;-69
2021/12/17 12:42:26;;;;;;;11.15;7.07;;;;;;;;;;5087888;28;20042;-70
2021/12/17 12:44:52;;;;;;;10.05;7.35;;;;;;;;;;5086121;28;20090;-70
2021/12/17 12:47:18;;;;;;;10.57;6.68;;;;;;;;;;5088751;28;20031;-70
2021/12/17 12:49:47;;;;;;;14.23;8.05;;;;;;;;;;5069342;28;20044;-70
2021/12/17 12:52:26;;;;;;;13.75;8.35;;;;;;;;;;5085110;28;20456;-69
2021/12/17 12:54:53;;;;;;;11.02;7.63;;;;;;;;;;5087999;28;20075;-69
2021/12/17 12:57:28;;;;;;;14.80;8.52;;;;;;;;;;5083000;28;20036;-70
2021/12/17 12:59:55;;;;;;;13.23;7.97;;;;;;;;;;5088282;28;20134;-70
2021/12/17 13:02:25;;;;;;;12.30;8.07;;;;;;;;;;5083884;28;20048;-70
2021/12/17 13:04:52;;;;;;;12.55;8.45;;;;;;;;;;5085827;28;20082;-70
2021/12/17 13:07:30;;;;;;;14.57;9.35;;;;;;;;;;5085391;28;20089;-70
2021/12/17 13:09:56;;;;;;;14.27;9.20;;;;;;;;;;5088349;28;20502;-70
2021/12/17 13:12:25;;;;;;;15.65;9.13;;;;;;;;;;5087449;28;20456;-69
2021/12/17 13:14:51;;;;;;;12.60;8.35;;;;;;;;;;5087349;28;20040;-69
2021/12/17 13:20:15;;;;;;;12.63;8.43;;;;;;;;;;5071019;28;20436;-70
2021/12/17 13:20:54;;;;;;;15.70;9.30;;;;;;;;;;5087572;28;20046;-70
2021/12/17 13:23:22;;;;;;;13.80;7.75;;;;;;;;;;5086190;28;20115;-70
2021/12/17 13:26:00;;;;;;;14.35;9.45;;;;;;;;;;5086202;28;20052;-69
2021/12/17 13:28:26;;;;;;;14.35;8.30;;;;;;;;;;5085945;28;20131;-70
2021/12/17 13:30:58;;;;;;;15.57;9.20;;;;;;;;;;5064078;28;20542;-71
2021/12/17 13:33:35;;;;;;;14.25;8.63;;;;;;;;;;5082051;28;20028;-70
2021/12/17 13:36:03;;;;;;;13.57;8.60;;;;;;;;;;5082464;28;20563;-71
2021/12/17 13:38:33;;;;;;;12.15;8.63;;;;;;;;;;5085363;28;20122;-70
2021/12/17 13:40:59;;;;;;;14.35;9.35;;;;;;;;;;5068138;28;20407;-71
2021/12/17 13:43:26;;;;;;;16.13;9.02;;;;;;;;;;5083869;28;20101;-71
2021/12/17 13:45:53;;;;;;;14.43;9.05;;;;;;;;;;5085951;28;20127;-70
2021/12/17 13:48:20;;;;;;;15.70;9.60;;;;;;;;;;5068097;28;20062;-70
2021/12/17 13:50:50;;;;;;;15.02;10.48;;;;;;;;;;5085131;28;20532;-70
2021/12/17 13:53:17;;;;;;;15.02;9.77;;;;;;;;;;5084608;28;20090;-70
2021/12/17 13:55:45;;;;;;;13.85;9.25;;;;;;;;;;5086767;28;20039;-71
2021/12/17 13:58:22;;;;;;;13.77;9.55;;;;;;;;;;5066477;28;20189;-70
2021/12/17 14:00:51;;;;;;;18.00;9.75;;;;;;;;;;5083353;28;20599;-70
2021/12/17 14:03:20;;;;;;;14.80;9.13;;;;;;;;;;5084996;28;20044;-71
2021/12/17 14:05:56;;;;;;;15.55;9.55;;;;;;;;;;5084819;28;20067;-70
2021/12/17 14:08:22;;;;;;;13.32;9.07;;;;;;;;;;5084579;28;20059;-70
2021/12/17 14:10:49;;;;;;;17.63;9.38;;;;;;;;;;5085433;28;20044;-70
2021/12/17 14:13:20;;;;;;;13.20;8.48;;;;;;;;;;5084680;28;20127;-70
2021/12/17 14:15:47;;;;;;;17.52;10.35;;;;;;;;;;5084743;28;20468;-70
2021/12/17 14:18:24;;;;;;;16.23;9.07;;;;;;;;;;5083696;28;20044;-71
2021/12/17 14:20:54;;;;;;;17.02;10.02;;;;;;;;;;5081675;28;20115;-70
2021/12/17 14:23:21;;;;;;;16.90;10.35;;;;;;;;;;5085882;28;20143;-71
2021/12/17 14:25:48;;;;;;;15.10;9.98;;;;;;;;;;5086515;28;20036;-71
2021/12/17 14:28:16;;;;;;;13.65;9.23;;;;;;;;;;5083159;28;20039;-71
2021/12/17 14:30:48;;;;;;;14.50;9.95;;;;;;;;;;5083831;28;20134;-70
2021/12/17 14:33:14;;;;;;;15.93;9.38;;;;;;;;;;5082999;28;20091;-71
2021/12/17 14:35:43;;;;;;;14.75;9.80;;;;;;;;;;5084272;28;20566;-70
2021/12/17 14:38:09;;;;;;;15.88;10.07;;;;;;;;;;5082914;28;20047;-70
2021/12/17 14:40:44;;;;;;;14.20;9.38;;;;;;;;;;5082915;28;20498;-70
2021/12/17 14:43:25;;;;;;;12.45;8.60;;;;;;;;;;5082312;28;20044;-71
2021/12/17 14:45:53;;;;;;;14.57;9.77;;;;;;;;;;5084381;28;20075;-70
2021/12/17 14:48:25;;;;;;;16.67;10.50;;;;;;;;;;5082718;28;20040;-70
2021/12/17 15:04:43;;;;;;;12.32;7.60;;;;;;;;;;5085431;28;20044;-71
2021/12/17 15:07:10;;;;;;;11.18;8.25;;;;;;;;;;5083624;28;20967;-70
2021/12/17 15:09:39;;;;;;;13.73;8.75;;;;;;;;;;5084952;28;20484;-70
2021/12/17 15:12:24;;;;;;;11.77;8.30;;;;;;;;;;5064936;28;20400;-71
2021/12/17 15:14:50;;;;;;;11.98;8.32;;;;;;;;;;5084569;28;20028;-70
2021/12/17 15:17:16;;;;;;;10.50;7.40;;;;;;;;;;5083315;28;20093;-70
2021/12/17 15:19:42;;;;;;;9.82;7.50;;;;;;;;;;5084671;28;20040;-70
2021/12/17 15:22:08;;;;;;;9.63;7.47;;;;;;;;;;5083849;28;20425;-70
2021/12/17 15:24:34;;;;;;;13.10;7.28;;;;;;;;;;5084181;28;20372;-70
2021/12/17 15:27:00;;;;;;;12.98;8.02;;;;;;;;;;5082626;28;20074;-70
2021/12/17 15:29:27;;;;;;;11.93;7.30;;;;;;;;;;5065143;28;20040;-69
2021/12/17 15:31:53;;;;;;;10.27;6.25;;;;;;;;;;5083214;28;20044;-71
2021/12/17 15:34:19;;;;;;;6.85;5.03;;;;;;;;;;5082621;28;20082;-70
2021/12/17 15:36:46;;;;;;;6.30;4.72;;;;;;;;;;5085189;28;20108;-70
2021/12/17 15:39:12;;;;;;;5.03;3.92;;;;;;;;;;5081342;28;20073;-71
2021/12/17 15:41:41;;;;;;;5.15;4.13;;;;;;;;;;5078632;28;20044;-70
2021/12/17 15:44:11;;;;;;;6.03;4.78;;;;;;;;;;5067067;28;20606;-71
2021/12/17 15:46:37;;;;;;;5.53;4.53;;;;;;;;;;5083800;28;20122;-71
2021/12/17 15:49:04;;;;;;;6.32;4.55;;;;;;;;;;5064676;28;20032;-71
2021/12/17 15:51:30;;;;;;;5.90;5.00;;;;;;;;;;5080067;28;20059;-70
2021/12/17 15:53:56;;;;;;;7.07;4.75;;;;;;;;;;5101550;28;20040;-70
2021/12/17 15:56:23;;;;;;;8.27;5.25;;;;;;;;;;5083426;28;20069;-70
2021/12/17 15:58:49;;;;;;;8.63;6.35;;;;;;;;;;5082137;28;20058;-70
2021/12/17 16:01:15;;;;;;;12.07;8.35;;;;;;;;;;5085521;28;20024;-70
2021/12/17 16:03:43;;;;;;;12.00;8.52;;;;;;;;;;5064166;28;20052;-71
2021/12/17 16:06:10;;;;;;;9.65;7.38;;;;;;;;;;5067170;28;20044;-71
2021/12/17 16:08:42;;;;;;;8.93;6.72;;;;;;;;;;5083048;28;20127;-71
2021/12/17 16:11:25;;;;;;;6.47;5.38;;;;;;;;;;5083380;28;20059;-71
2021/12/17 16:21:56;;;;;;;10.75;8.43;;;;;;;;;;5082951;28;20040;-71
2021/12/17 16:24:23;;;;;;;10.20;7.43;;;;;;;;;;5083631;28;20044;-71
2021/12/17 16:26:49;;;;;;;9.20;6.65;;;;;;;;;;5078479;28;20551;-70
2021/12/17 16:29:18;;;;;;;10.45;7.40;;;;;;;;;;5060734;28;20060;-71
2021/12/17 16:31:45;;;;;;;8.45;6.85;;;;;;;;;;5080686;28;20488;-70
2021/12/17 16:34:11;;;;;;;8.45;5.97;;;;;;;;;;5065597;28;20063;-70
2021/12/17 16:36:38;;;;;;;8.68;5.70;;;;;;;;;;5079775;28;20480;-70
2021/12/17 16:39:05;;;;;;;8.85;5.72;;;;;;;;;;5081489;28;20109;-70
2021/12/17 16:41:31;;;;;;;8.60;5.70;;;;;;;;;;5081830;28;20036;-69
2021/12/17 16:44:01;;;;;;;7.28;5.88;;;;;;;;;;5063963;28;21102;-70
2021/12/17 16:49:07;;;;;;;7.97;5.82;;;;;;;;;;5067679;28;20048;-70
2021/12/17 16:51:33;;;;;;;8.52;6.18;;;;;;;;;;5066940;28;20121;-70
2021/12/17 16:53:59;;;;;;;10.45;6.32;;;;;;;;;;5078328;28;20376;-70
2021/12/17 16:56:26;;;;;;;9.02;6.35;;;;;;;;;;5082444;28;20043;-70
2021/12/17 16:58:52;;;;;;;9.45;6.65;;;;;;;;;;5081652;28;20099;-70
2021/12/17 17:01:18;;;;;;;10.63;7.25;;;;;;;;;;5079913;28;20044;-70
2021/12/17 17:03:45;;;;;;;8.95;6.63;;;;;;;;;;5086906;28;20054;-70
2021/12/17 17:06:11;;;;;;;9.85;6.68;;;;;;;;;;5085892;28;20101;-70
2021/12/17 17:08:37;;;;;;;10.00;6.90;;;;;;;;;;5085349;28;20055;-70
2021/12/17 17:11:05;;;;;;;8.35;6.80;;;;;;;;;;5084240;28;20451;-70
2021/12/17 17:13:31;;;;;;;10.40;7.22;;;;;;;;;;5067398;28;20044;-70
2021/12/17 17:16:01;;;;;;;9.85;7.50;;;;;;;;;;5084945;28;20046;-70
2021/12/17 17:18:27;;;;;;;12.98;8.00;;;;;;;;;;5083629;28;20079;-70
2021/12/17 17:20:53;;;;;;;12.02;8.32;;;;;;;;;;5069953;28;20055;-70
2021/12/17 17:23:19;;;;;;;13.48;8.70;;;;;;;;;;5084092;28;20044;-70
2021/12/17 17:25:45;;;;;;;11.18;8.80;;;;;;;;;;5085971;28;20051;-71
2021/12/17 17:28:11;;;;;;;10.93;8.60;;;;;;;;;;5084634;28;20112;-70
2021/12/17 17:30:38;;;;;;;14.45;9.50;;;;;;;;;;5080881;28;20052;-71
2021/12/17 17:33:05;;;;;;;14.18;10.43;;;;;;;;;;5081492;28;20110;-70
2021/12/17 17:35:33;;;;;;;11.57;8.73;;;;;;;;;;5083989;28;20445;-70
2021/12/17 17:37:59;;;;;;;12.30;8.00;;;;;;;;;;5083848;28;20036;-70
2021/12/17 17:40:25;;;;;;;10.10;7.75;;;;;;;;;;5084776;28;20043;-70
2021/12/17 17:42:51;;;;;;;13.55;8.52;;;;;;;;;;5085463;28;20063;-70
2021/12/17 17:45:18;;;;;;;15.80;9.90;;;;;;;;;;5069201;28;20130;-70
2021/12/17 17:47:48;;;;;;;12.57;8.90;;;;;;;;;;5085181;28;20055;-70
2021/12/17 17:50:15;;;;;;;12.98;9.13;;;;;;;;;;5067251;28;20044;-71
2021/12/17 17:52:41;;;;;;;13.10;8.95;;;;;;;;;;5080935;28;20054;-70
2021/12/17 17:55:07;;;;;;;11.07;8.35;;;;;;;;;;5085103;28;20051;-70
2021/12/17 17:57:33;;;;;;;11.40;8.20;;;;;;;;;;5085466;28;20098;-71
2021/12/17 18:00:01;;;;;;;10.32;8.25;;;;;;;;;;5086775;28;20031;-70
2021/12/17 18:02:27;;;;;;;12.60;9.13;;;;;;;;;;5066748;28;20060;-70